createdAt,value
2017-11-30T00:00:29.055Z,33.43
2017-11-30T00:02:57.315Z,34.20
2017-11-30T00:05:25.584Z,35.17
2017-11-30T00:07:53.045Z,34.23
2017-11-30T00:10:20.579Z,35.97
2017-11-30T00:12:48.059Z,35.43
2017-11-30T00:15:15.527Z,35.03
2017-11-30T00:17:43.828Z,34.10
2017-11-30T00:20:11.437Z,33.03
2017-11-30T00:22:38.928Z,36.83
2017-11-30T00:25:07.225Z,36.27
2017-11-30T00:27:34.701Z,38.17
2017-11-30T00:30:02.198Z,36.97
2017-11-30T00:32:29.676Z,36.27
2017-11-30T00:34:57.150Z,38.20
2017-11-30T00:37:25.388Z,35.97
2017-11-30T00:39:52.865Z,37.13
2017-11-30T00:42:32.252Z,38.87
2017-11-30T00:44:59.722Z,38.37
2017-11-30T00:47:27.220Z,36.67
2017-11-30T00:49:54.732Z,38.90
2017-11-30T00:52:22.224Z,36.73
2017-11-30T00:54:50.487Z,38.80
2017-11-30T00:57:17.956Z,41.10
2017-11-30T00:59:45.449Z,34.30
2017-11-30T01:02:12.971Z,34.70
2017-11-30T01:04:40.437Z,34.87
2017-11-30T01:07:07.908Z,35.10
2017-11-30T01:09:35.400Z,33.20
2017-11-30T01:12:02.877Z,36.20
2017-11-30T01:14:30.355Z,38.80
2017-11-30T01:16:57.855Z,32.50
2017-11-30T01:19:26.093Z,32.43
2017-11-30T01:21:53.580Z,32.80
2017-11-30T01:24:21.052Z,32.70
2017-11-30T01:26:49.289Z,33.13
2017-11-30T01:29:16.851Z,32.50
2017-11-30T01:31:44.354Z,33.60
2017-11-30T01:34:12.045Z,30.40
2017-11-30T01:36:39.522Z,27.93
2017-11-30T01:39:06.998Z,30.57
2017-11-30T01:41:35.248Z,30.20
2017-11-30T01:44:02.788Z,30.00
2017-11-30T01:46:30.266Z,31.47
2017-11-30T01:48:57.773Z,31.10
2017-11-30T01:51:25.240Z,28.40
2017-11-30T01:53:53.501Z,29.33
2017-11-30T01:56:20.962Z,27.87
2017-11-30T01:58:49.220Z,28.20
2017-11-30T02:01:16.686Z,30.83
2017-11-30T02:03:44.957Z,30.93
2017-11-30T02:06:12.585Z,31.00
2017-11-30T02:08:40.067Z,32.13
2017-11-30T02:11:07.568Z,30.80
2017-11-30T02:13:35.806Z,28.30
2017-11-30T02:16:04.792Z,32.80
2017-11-30T02:18:32.340Z,30.97
2017-11-30T02:20:59.874Z,33.23
2017-11-30T02:23:27.424Z,33.67
2017-11-30T02:25:54.938Z,33.33
2017-11-30T02:28:22.511Z,31.80
2017-11-30T02:30:50.124Z,33.00
2017-11-30T02:33:17.641Z,33.97
2017-11-30T02:35:45.945Z,34.27
2017-11-30T02:38:13.478Z,34.40
2017-11-30T02:40:41.779Z,36.03
2017-11-30T02:43:09.319Z,36.43
2017-11-30T02:45:37.648Z,36.80
2017-11-30T02:48:05.157Z,35.40
2017-11-30T02:50:33.425Z,39.70
2017-11-30T02:53:00.893Z,38.00
2017-11-30T02:55:29.134Z,43.10
2017-11-30T02:57:56.611Z,37.27
2017-11-30T03:00:24.117Z,36.97
2017-11-30T03:02:51.588Z,40.77
2017-11-30T03:05:19.080Z,44.03
2017-11-30T03:07:48.101Z,40.70
2017-11-30T03:10:16.339Z,42.57
2017-11-30T03:12:43.819Z,42.33
2017-11-30T03:15:11.305Z,44.23
2017-11-30T03:17:39.557Z,40.70
2017-11-30T03:20:08.260Z,38.40
2017-11-30T03:22:36.561Z,38.27
2017-11-30T03:25:04.057Z,38.97
2017-11-30T03:27:31.574Z,37.60
2017-11-30T03:29:59.076Z,35.87
2017-11-30T03:32:26.604Z,32.70
2017-11-30T03:34:54.104Z,29.90
2017-11-30T03:37:21.568Z,28.23
2017-11-30T03:39:49.042Z,25.80
2017-11-30T03:42:17.284Z,25.07
2017-11-30T03:44:44.761Z,26.63
2017-11-30T03:47:12.241Z,24.20
2017-11-30T03:49:40.479Z,25.00
2017-11-30T03:52:07.936Z,26.73
2017-11-30T03:54:35.407Z,28.10
2017-11-30T03:57:03.180Z,31.40
2017-11-30T03:59:30.659Z,30.37
2017-11-30T04:01:58.892Z,31.20
2017-11-30T04:04:26.366Z,37.60
2017-11-30T04:06:53.856Z,34.93
2017-11-30T04:09:22.079Z,29.93
2017-11-30T04:11:49.576Z,29.10
2017-11-30T04:14:17.822Z,33.57
2017-11-30T04:16:45.303Z,27.20
2017-11-30T04:19:12.766Z,24.07
2017-11-30T04:21:41.004Z,27.10
2017-11-30T04:24:08.488Z,28.80
2017-11-30T04:26:36.000Z,28.03
2017-11-30T04:29:03.513Z,29.60
2017-11-30T04:31:30.976Z,30.37
2017-11-30T04:33:59.220Z,32.00
2017-11-30T04:36:26.709Z,35.43
2017-11-30T04:38:54.231Z,38.70
2017-11-30T04:41:21.741Z,35.03
2017-11-30T04:43:49.240Z,36.93
2017-11-30T04:46:16.703Z,33.87
2017-11-30T04:48:44.263Z,37.87
2017-11-30T04:51:11.723Z,36.23
2017-11-30T04:53:39.205Z,30.87
2017-11-30T04:56:06.677Z,32.97
2017-11-30T04:58:34.948Z,33.13
2017-11-30T05:01:02.429Z,30.90
2017-11-30T05:03:29.967Z,32.00
2017-11-30T05:05:57.452Z,32.80
2017-11-30T05:08:24.975Z,36.10
2017-11-30T05:10:52.673Z,34.80
2017-11-30T05:13:20.897Z,32.97
2017-11-30T05:15:48.366Z,38.70
2017-11-30T05:18:15.820Z,33.40
2017-11-30T05:20:43.328Z,33.37
2017-11-30T05:23:11.562Z,35.33
2017-11-30T05:25:39.040Z,35.67
2017-11-30T05:28:06.539Z,33.50
2017-11-30T05:30:34.031Z,31.63
2017-11-30T05:33:01.499Z,35.10
2017-11-30T05:35:28.991Z,28.43
2017-11-30T05:37:56.465Z,26.97
2017-11-30T05:40:23.974Z,30.70
2017-11-30T05:42:53.444Z,29.20
2017-11-30T05:45:20.962Z,28.17
2017-11-30T05:47:49.211Z,31.83
2017-11-30T05:50:16.669Z,28.67
2017-11-30T05:52:44.914Z,27.13
2017-11-30T05:55:12.388Z,32.00
2017-11-30T05:57:39.925Z,27.77
2017-11-30T06:00:07.802Z,29.70
2017-11-30T06:02:35.267Z,31.27
2017-11-30T06:05:02.797Z,31.60
2017-11-30T06:07:30.385Z,28.57
2017-11-30T06:09:57.866Z,33.53
2017-11-30T06:12:25.337Z,29.50
2017-11-30T06:14:56.012Z,33.30
2017-11-30T06:17:23.512Z,32.57
2017-11-30T06:19:50.992Z,37.70
2017-11-30T06:22:18.440Z,32.90
2017-11-30T06:24:45.917Z,31.87
2017-11-30T06:27:13.413Z,32.43
2017-11-30T06:29:40.904Z,33.27
2017-11-30T06:32:08.405Z,31.93
2017-11-30T06:34:36.657Z,32.67
2017-11-30T06:37:04.115Z,33.33
2017-11-30T06:39:31.608Z,31.27
2017-11-30T06:41:59.076Z,33.97
2017-11-30T06:44:26.547Z,36.27
2017-11-30T06:46:54.037Z,31.97
2017-11-30T06:49:21.550Z,35.60
2017-11-30T06:51:49.596Z,36.37
2017-11-30T06:54:18.486Z,35.23
2017-11-30T06:56:47.262Z,34.30
2017-11-30T06:59:18.142Z,37.00
2017-11-30T07:01:46.286Z,31.93
2017-11-30T07:04:15.070Z,32.53
2017-11-30T07:06:43.754Z,36.17
2017-11-30T07:09:12.542Z,34.00
2017-11-30T07:11:40.511Z,34.10
2017-11-30T07:14:08.378Z,34.27
2017-11-30T07:16:36.344Z,35.30
2017-11-30T07:19:04.314Z,30.33
2017-11-30T07:21:32.165Z,30.97
2017-11-30T07:24:00.152Z,29.50
2017-11-30T07:26:28.114Z,30.63
2017-11-30T07:28:56.185Z,29.13
2017-11-30T07:31:24.052Z,29.00
2017-11-30T07:33:52.124Z,29.50
2017-11-30T07:36:39.035Z,29.63
2017-11-30T07:39:07.105Z,30.97
2017-11-30T07:41:37.253Z,31.13
2017-11-30T07:44:05.704Z,27.23
2017-11-30T07:46:34.523Z,30.00
2017-11-30T07:49:02.467Z,29.40
2017-11-30T07:51:30.329Z,31.37
2017-11-30T07:56:30.976Z,32.03
2017-11-30T07:58:59.351Z,29.60
2017-11-30T08:01:29.060Z,33.13
2017-11-30T08:03:59.280Z,29.70
2017-11-30T08:06:27.249Z,31.17
2017-11-30T08:08:55.120Z,32.30
2017-11-30T08:11:23.190Z,37.40
2017-11-30T08:13:53.713Z,33.53
2017-11-30T08:16:21.886Z,33.37
2017-11-30T08:18:49.958Z,27.87
2017-11-30T08:21:21.714Z,31.03
2017-11-30T08:23:50.757Z,29.67
2017-11-30T08:26:22.976Z,27.77
2017-11-30T08:28:52.124Z,29.87
2017-11-30T08:31:20.040Z,27.93
2017-11-30T08:33:48.373Z,27.63
2017-11-30T08:36:17.524Z,29.93
2017-11-30T08:38:48.013Z,28.40
2017-11-30T08:41:16.828Z,33.33
2017-11-30T08:43:45.205Z,30.07
2017-11-30T08:46:20.838Z,32.70
2017-11-30T08:48:53.620Z,26.37
2017-11-30T08:51:23.342Z,28.30
2017-11-30T08:53:51.482Z,27.57
2017-11-30T08:56:19.485Z,29.03
2017-11-30T08:58:47.656Z,28.73
2017-11-30T09:01:16.723Z,27.50
2017-11-30T09:03:44.549Z,27.00
2017-11-30T09:06:12.587Z,23.37
2017-11-30T09:08:41.163Z,25.20
2017-11-30T09:11:09.444Z,23.60
2017-11-30T09:13:38.225Z,25.33
2017-11-30T09:16:07.180Z,22.80
2017-11-30T09:18:35.297Z,21.20
2017-11-30T09:21:04.279Z,21.57
2017-11-30T09:23:32.247Z,21.30
2017-11-30T09:26:00.429Z,21.33
2017-11-30T09:28:29.411Z,21.43
2017-11-30T09:30:57.484Z,24.27
2017-11-30T09:33:25.879Z,20.23
2017-11-30T09:35:54.793Z,21.13
2017-11-30T09:38:23.786Z,21.80
2017-11-30T09:40:51.913Z,25.03
2017-11-30T09:43:20.085Z,23.03
2017-11-30T09:45:48.154Z,22.67
2017-11-30T09:48:16.330Z,23.43
2017-11-30T09:50:44.091Z,23.10
2017-11-30T09:53:12.387Z,22.10
2017-11-30T09:55:41.729Z,20.77
2017-11-30T09:58:09.859Z,19.80
2017-11-30T10:00:37.911Z,21.20
2017-11-30T10:03:05.671Z,16.20
2017-11-30T10:05:34.681Z,18.00
2017-11-30T10:08:02.915Z,15.60
2017-11-30T10:10:31.111Z,17.47
2017-11-30T10:12:59.076Z,18.97
2017-11-30T10:15:28.172Z,14.27
2017-11-30T10:17:56.239Z,14.83
2017-11-30T10:20:27.957Z,14.63
2017-11-30T10:22:56.830Z,13.30
2017-11-30T10:25:24.840Z,12.07
2017-11-30T10:27:56.021Z,11.40
2017-11-30T10:30:32.649Z,12.87
2017-11-30T10:33:02.711Z,11.60
2017-11-30T10:35:35.064Z,12.03
2017-11-30T10:38:04.961Z,10.63
2017-11-30T10:40:32.804Z,13.30
2017-11-30T10:43:03.529Z,10.87
2017-11-30T10:45:36.491Z,10.37
2017-11-30T10:48:11.852Z,8.43
2017-11-30T10:50:39.685Z,7.97
2017-11-30T10:53:09.947Z,8.47
2017-11-30T10:55:38.217Z,8.13
2017-11-30T10:58:05.748Z,7.60
2017-11-30T11:00:33.716Z,7.80
2017-11-30T11:03:01.185Z,7.03
2017-11-30T11:05:28.712Z,8.10
2017-11-30T11:07:56.284Z,7.10
2017-11-30T11:10:23.938Z,7.00
2017-11-30T11:12:51.783Z,6.30
2017-11-30T11:15:20.035Z,5.73
2017-11-30T11:17:47.670Z,8.27
2017-11-30T11:20:15.155Z,6.83
2017-11-30T11:22:42.845Z,6.40
2017-11-30T11:25:10.375Z,6.60
2017-11-30T11:27:37.999Z,6.40
2017-11-30T11:30:05.482Z,5.57
2017-11-30T11:32:33.686Z,7.17
2017-11-30T11:35:01.940Z,5.43
2017-11-30T11:37:29.414Z,6.97
2017-11-30T11:39:56.942Z,5.70
2017-11-30T11:42:24.426Z,6.77
2017-11-30T11:44:51.900Z,5.50
2017-11-30T11:47:20.156Z,6.43
2017-11-30T11:49:49.184Z,6.67
2017-11-30T11:52:16.608Z,5.97
2017-11-30T11:54:44.846Z,5.10
2017-11-30T11:57:12.324Z,6.63
2017-11-30T11:59:39.891Z,5.90
2017-11-30T12:02:07.377Z,5.20
2017-11-30T12:04:34.869Z,4.90
2017-11-30T12:07:02.384Z,4.50
2017-11-30T12:09:29.940Z,4.20
2017-11-30T12:11:57.426Z,4.67
2017-11-30T12:14:25.659Z,4.83
2017-11-30T12:16:53.377Z,4.70
2017-11-30T12:19:21.647Z,4.90
2017-11-30T12:21:50.370Z,4.77
2017-11-30T12:24:18.291Z,5.37
2017-11-30T12:26:46.509Z,7.10
2017-11-30T12:29:14.351Z,5.17
2017-11-30T12:31:42.412Z,7.33
2017-11-30T12:34:10.643Z,6.77
2017-11-30T12:36:38.120Z,7.23
2017-11-30T12:39:06.672Z,6.33
2017-11-30T12:41:34.140Z,9.53
2017-11-30T12:44:01.615Z,8.70
2017-11-30T12:46:29.093Z,10.57
2017-11-30T12:48:56.583Z,9.80
2017-11-30T12:51:24.831Z,11.67
2017-11-30T12:53:52.344Z,13.53
2017-11-30T12:56:19.838Z,12.37
2017-11-30T12:58:47.301Z,14.10
2017-11-30T13:01:14.822Z,13.60
2017-11-30T13:03:42.324Z,17.70
2017-11-30T13:06:10.586Z,17.10
2017-11-30T13:08:38.050Z,18.40
2017-11-30T13:11:05.619Z,18.70
2017-11-30T13:13:33.132Z,14.83
2017-11-30T13:16:00.599Z,16.67
2017-11-30T13:18:28.079Z,15.90
2017-11-30T13:20:55.559Z,15.23
2017-11-30T13:23:23.810Z,13.70
2017-11-30T13:25:51.298Z,13.40
2017-11-30T13:28:19.542Z,12.43
2017-11-30T13:30:47.156Z,13.03
2017-11-30T13:33:15.381Z,12.10
2017-11-30T13:35:42.952Z,12.07
2017-11-30T13:38:10.422Z,12.17
2017-11-30T13:40:39.436Z,12.23
2017-11-30T13:43:07.794Z,11.27
2017-11-30T13:45:35.343Z,13.87
2017-11-30T13:48:02.824Z,13.57
2017-11-30T13:50:31.083Z,14.83
2017-11-30T13:52:58.553Z,13.13
2017-11-30T13:55:26.115Z,13.90
2017-11-30T13:57:54.515Z,14.03
2017-11-30T14:00:22.002Z,14.33
2017-11-30T14:02:49.483Z,12.00
2017-11-30T14:05:16.951Z,12.67
2017-11-30T14:07:44.435Z,13.83
2017-11-30T14:10:12.718Z,13.50
2017-11-30T14:12:41.180Z,13.83
2017-11-30T14:15:08.643Z,13.80
2017-11-30T14:17:36.140Z,14.00
2017-11-30T14:20:03.598Z,13.47
2017-11-30T14:22:31.083Z,13.27
2017-11-30T14:24:58.597Z,12.33
2017-11-30T14:27:26.080Z,12.13
2017-11-30T14:29:53.552Z,14.70
2017-11-30T14:32:21.033Z,14.70
2017-11-30T14:34:48.572Z,14.53
2017-11-30T14:37:16.040Z,15.60
2017-11-30T14:39:43.506Z,16.60
2017-11-30T14:42:10.992Z,16.67
2017-11-30T14:44:38.480Z,16.10
2017-11-30T14:47:05.943Z,15.57
2017-11-30T14:49:33.417Z,15.90
2017-11-30T14:52:01.063Z,14.43
2017-11-30T14:54:29.429Z,18.67
2017-11-30T14:56:57.665Z,16.40
2017-11-30T14:59:25.163Z,16.90
2017-11-30T15:01:53.481Z,17.23
2017-11-30T15:04:20.987Z,18.03
2017-11-30T15:06:49.221Z,19.10
2017-11-30T15:09:16.700Z,16.33
2017-11-30T15:11:44.176Z,16.33
2017-11-30T15:14:11.701Z,14.47
2017-11-30T15:16:39.192Z,17.33
2017-11-30T15:19:06.691Z,17.83
2017-11-30T15:21:35.144Z,15.67
2017-11-30T15:24:04.739Z,18.90
2017-11-30T15:26:32.215Z,15.07
2017-11-30T15:29:00.464Z,16.77
2017-11-30T15:31:27.952Z,14.30
2017-11-30T15:33:56.202Z,17.20
2017-11-30T15:36:23.663Z,18.33
2017-11-30T15:38:51.158Z,20.63
2017-11-30T15:41:18.718Z,20.27
2017-11-30T15:43:46.238Z,17.93
2017-11-30T15:46:13.734Z,16.73
2017-11-30T15:48:41.210Z,16.10
2017-11-30T15:51:08.694Z,17.27
2017-11-30T15:53:36.183Z,18.73
2017-11-30T15:56:03.773Z,17.97
2017-11-30T15:58:31.278Z,18.30
2017-11-30T16:00:58.775Z,16.43
2017-11-30T16:03:27.036Z,17.60
2017-11-30T16:05:55.348Z,18.93
2017-11-30T16:08:22.847Z,17.90
2017-11-30T16:10:50.654Z,17.70
2017-11-30T16:13:18.898Z,16.83
2017-11-30T16:15:46.489Z,15.47
2017-11-30T16:18:14.720Z,18.77
2017-11-30T16:20:42.259Z,16.77
2017-11-30T16:23:10.607Z,16.30
2017-11-30T16:25:38.992Z,17.83
2017-11-30T16:28:07.740Z,16.87
2017-11-30T16:30:35.296Z,15.70
2017-11-30T16:33:03.201Z,18.53
2017-11-30T16:35:31.850Z,17.20
2017-11-30T16:37:59.700Z,16.57
2017-11-30T16:40:27.423Z,17.33
2017-11-30T16:42:55.139Z,14.40
2017-11-30T16:45:23.026Z,17.10
2017-11-30T16:47:51.781Z,15.90
2017-11-30T16:50:19.655Z,19.30
2017-11-30T16:52:47.203Z,18.87
2017-11-30T16:55:14.762Z,20.70
2017-11-30T16:57:42.684Z,20.53
2017-11-30T17:00:10.203Z,19.73
2017-11-30T17:02:37.864Z,19.40
2017-11-30T17:05:05.393Z,19.50
2017-11-30T17:07:33.764Z,20.23
2017-11-30T17:10:01.290Z,18.70
2017-11-30T17:12:28.768Z,18.07
2017-11-30T17:14:56.310Z,17.40
2017-11-30T17:17:23.796Z,17.67
2017-11-30T17:19:52.088Z,16.80
2017-11-30T17:22:20.333Z,18.00
2017-11-30T17:24:47.811Z,18.30
2017-11-30T17:27:16.069Z,18.33
2017-11-30T17:29:44.341Z,16.30
2017-11-30T17:32:11.810Z,16.87
2017-11-30T17:34:39.336Z,17.60
2017-11-30T17:37:06.808Z,19.57
2017-11-30T17:39:34.283Z,23.13
2017-11-30T17:42:01.795Z,18.73
2017-11-30T17:44:29.258Z,16.00
2017-11-30T17:46:56.766Z,16.23
2017-11-30T17:49:24.299Z,17.30
2017-11-30T17:51:51.792Z,14.87
2017-11-30T17:54:19.249Z,16.20
2017-11-30T17:56:47.549Z,15.73
2017-11-30T17:59:14.996Z,16.40
2017-11-30T18:01:43.235Z,17.50
2017-11-30T18:04:10.742Z,16.33
2017-11-30T18:06:38.230Z,13.27
2017-11-30T18:09:05.704Z,12.67
2017-11-30T18:11:33.194Z,11.03
2017-11-30T18:14:00.705Z,12.13
2017-11-30T18:16:28.239Z,12.23
2017-11-30T18:18:55.770Z,14.70
2017-11-30T18:21:24.003Z,13.00
2017-11-30T18:23:51.531Z,15.33
2017-11-30T18:26:19.794Z,16.40
2017-11-30T18:28:48.216Z,16.70
2017-11-30T18:31:15.887Z,17.37
2017-11-30T18:33:43.390Z,16.73
2017-11-30T18:36:11.644Z,15.30
2017-11-30T18:38:39.153Z,16.47
2017-11-30T18:41:06.624Z,15.77
2017-11-30T18:43:34.762Z,15.80
2017-11-30T18:46:03.100Z,17.70
2017-11-30T18:48:30.719Z,16.07
2017-11-30T18:50:58.270Z,17.70
2017-11-30T18:53:26.504Z,20.03
2017-11-30T18:55:53.980Z,16.97
2017-11-30T18:58:21.469Z,16.73
2017-11-30T19:00:48.960Z,15.10
2017-11-30T19:03:16.443Z,17.97
2017-11-30T19:05:44.062Z,17.37
2017-11-30T19:08:11.582Z,16.53
2017-11-30T19:10:39.071Z,19.40
2017-11-30T19:13:08.636Z,19.10
2017-11-30T19:15:36.919Z,15.57
2017-11-30T19:18:07.207Z,14.30
2017-11-30T19:20:34.796Z,18.33
2017-11-30T19:23:02.398Z,14.57
2017-11-30T19:25:30.306Z,14.57
2017-11-30T19:27:57.852Z,15.33
2017-11-30T19:30:25.637Z,17.97
2017-11-30T19:32:54.731Z,14.53
2017-11-30T19:35:22.271Z,15.20
2017-11-30T19:37:49.912Z,14.30
2017-11-30T19:40:17.609Z,14.80
2017-11-30T19:42:45.678Z,13.60
2017-11-30T19:45:13.222Z,13.60
2017-11-30T19:47:40.741Z,13.53
2017-11-30T19:50:08.257Z,15.93
2017-11-30T19:52:35.862Z,13.00
2017-11-30T19:55:04.129Z,17.43
2017-11-30T19:57:33.244Z,13.83
2017-11-30T20:00:01.566Z,12.13
2017-11-30T20:02:29.043Z,13.40
2017-11-30T20:04:56.673Z,15.13
2017-11-30T20:07:24.175Z,14.77
2017-11-30T20:09:51.794Z,14.70
2017-11-30T20:12:19.308Z,16.10
2017-11-30T20:14:46.865Z,17.67
2017-11-30T20:17:14.410Z,15.97
2017-11-30T20:19:41.927Z,13.90
2017-11-30T20:22:09.425Z,14.90
2017-11-30T20:24:36.920Z,14.43
2017-11-30T20:27:05.241Z,14.27
2017-11-30T20:29:32.922Z,14.50
2017-11-30T20:32:00.399Z,14.47
2017-11-30T20:34:29.570Z,15.03
2017-11-30T20:36:57.042Z,13.53
2017-11-30T20:39:24.596Z,15.57
2017-11-30T20:41:52.177Z,16.00
2017-11-30T20:44:19.667Z,14.57
2017-11-30T20:46:47.192Z,14.33
2017-11-30T20:49:14.675Z,15.20
2017-11-30T20:51:42.314Z,16.27
2017-11-30T20:54:09.855Z,17.67
2017-11-30T20:56:37.400Z,16.70
2017-11-30T20:59:04.891Z,17.40
2017-11-30T21:01:32.381Z,16.17
2017-11-30T21:03:59.884Z,17.60
2017-11-30T21:06:27.471Z,17.83
2017-11-30T21:08:54.951Z,18.83
2017-11-30T21:11:23.346Z,19.90
2017-11-30T21:13:50.836Z,21.13
2017-11-30T21:16:20.403Z,18.97
2017-11-30T21:18:47.952Z,16.50
2017-11-30T21:21:15.407Z,18.67
2017-11-30T21:23:43.024Z,17.47
2017-11-30T21:26:10.495Z,19.33
2017-11-30T21:28:37.986Z,27.80
2017-11-30T21:31:06.230Z,23.30
2017-11-30T21:33:33.735Z,22.47
2017-11-30T21:36:01.987Z,19.10
2017-11-30T21:38:29.474Z,20.43
2017-11-30T21:40:57.799Z,19.87
2017-11-30T21:43:25.282Z,19.50
2017-11-30T21:45:52.809Z,16.90
2017-11-30T21:48:20.297Z,16.40
2017-11-30T21:50:47.820Z,18.63
2017-11-30T21:53:15.311Z,18.40
2017-11-30T21:55:43.555Z,19.00
2017-11-30T21:58:11.086Z,20.40
2017-11-30T22:00:39.361Z,18.17
2017-11-30T22:03:07.585Z,20.73
2017-11-30T22:05:35.096Z,17.40
2017-11-30T22:08:03.375Z,16.50
2017-11-30T22:10:31.616Z,17.67
2017-11-30T22:12:59.103Z,19.90
2017-11-30T22:15:27.346Z,19.90
2017-11-30T22:17:54.835Z,22.00
2017-11-30T22:20:23.102Z,21.63
2017-11-30T22:22:50.576Z,22.00
2017-11-30T22:25:18.069Z,24.10
2017-11-30T22:27:45.542Z,20.57
2017-11-30T22:30:13.056Z,18.13
2017-11-30T22:32:40.582Z,21.87
2017-11-30T22:35:08.065Z,22.57
2017-11-30T22:37:36.318Z,17.57
2017-11-30T22:40:05.371Z,18.43
2017-11-30T22:42:32.869Z,19.53
2017-11-30T22:45:00.657Z,18.07
2017-11-30T22:47:29.006Z,19.80
2017-11-30T22:49:56.487Z,22.30
2017-11-30T22:52:24.735Z,22.67
2017-11-30T22:54:52.213Z,22.77
2017-11-30T22:57:19.687Z,21.90
2017-11-30T22:59:47.970Z,24.40
2017-11-30T23:02:16.319Z,19.30
2017-11-30T23:04:43.795Z,24.43
2017-11-30T23:07:12.053Z,23.70
2017-11-30T23:09:39.520Z,23.43
2017-11-30T23:12:06.994Z,28.17
2017-11-30T23:14:35.240Z,26.87
2017-11-30T23:17:02.734Z,26.07
2017-11-30T23:19:30.292Z,29.67
2017-11-30T23:21:57.726Z,26.60
2017-11-30T23:24:25.231Z,25.87
2017-11-30T23:26:52.860Z,29.93
2017-11-30T23:29:21.104Z,25.50
2017-11-30T23:31:48.641Z,28.67
2017-11-30T23:34:16.093Z,27.70
2017-11-30T23:36:43.566Z,29.40
2017-11-30T23:39:11.070Z,25.87
2017-11-30T23:41:38.624Z,28.87
2017-11-30T23:44:06.114Z,30.07
2017-11-30T23:46:34.340Z,25.73
2017-11-30T23:49:01.819Z,27.63
2017-11-30T23:51:29.404Z,26.47
2017-11-30T23:53:57.660Z,29.30
2017-11-30T23:56:25.125Z,27.27
2017-11-30T23:58:53.387Z,28.37
